createdAt,value
2017-04-25T00:00:05.476Z,29.8
2017-04-25T00:02:05.228Z,29.8
2017-04-25T00:04:05.956Z,29.8
2017-04-25T00:06:05.968Z,29.8
2017-04-25T00:08:05.386Z,29.8
2017-04-25T00:10:05.302Z,29.9
2017-04-25T00:12:05.149Z,29.9
2017-04-25T00:14:05.824Z,29.9
2017-04-25T00:16:05.519Z,29.9
2017-04-25T00:18:05.731Z,29.9
2017-04-25T00:20:05.992Z,29.8
2017-04-25T00:22:05.890Z,29.8
2017-04-25T00:24:05.962Z,29.9
2017-04-25T00:26:05.698Z,30
2017-04-25T00:28:07.967Z,29.9
2017-04-25T00:30:06.052Z,29.9
2017-04-25T00:32:05.288Z,29.9
2017-04-25T00:34:05.926Z,29.9
2017-04-25T00:36:05.889Z,29.9
2017-04-25T00:38:08.096Z,29.9
2017-04-25T00:40:08.220Z,30
2017-04-25T00:42:06.303Z,30
2017-04-25T00:44:06.046Z,30
2017-04-25T00:46:05.397Z,29.8
2017-04-25T00:48:05.239Z,30
2017-04-25T00:50:05.906Z,30
2017-04-25T00:52:05.141Z,29.9
2017-04-25T00:54:11.044Z,29.9
2017-04-25T00:56:06.102Z,29.9
2017-04-25T00:58:05.882Z,29.9
2017-04-25T01:00:08.259Z,30
2017-04-25T01:02:08.612Z,30
2017-04-25T01:04:07.929Z,30
2017-04-25T01:06:08.253Z,30
2017-04-25T01:08:05.956Z,30
2017-04-25T01:10:05.672Z,30
2017-04-25T01:12:16.446Z,30.1
2017-04-25T01:14:05.198Z,30
2017-04-25T01:16:05.907Z,30.1
2017-04-25T01:18:08.520Z,30.1
2017-04-25T01:20:05.372Z,30.1
2017-04-25T01:22:05.076Z,30.1
2017-04-25T01:24:06.080Z,30.2
2017-04-25T01:26:05.850Z,30.2
2017-04-25T01:28:08.369Z,30.3
2017-04-25T01:30:08.513Z,30.3
2017-04-25T01:32:05.207Z,30.3
2017-04-25T01:34:05.453Z,30.4
2017-04-25T01:36:05.370Z,30.5
2017-04-25T01:38:05.168Z,30.2
2017-04-25T01:40:05.851Z,30.3
2017-04-25T01:42:05.696Z,30.3
2017-04-25T01:44:05.414Z,30.3
2017-04-25T01:46:07.683Z,30.3
2017-04-25T01:48:08.425Z,30.3
2017-04-25T01:50:07.719Z,30.2
2017-04-25T01:52:05.470Z,30.2
2017-04-25T01:54:10.506Z,30.3
2017-04-25T01:56:05.190Z,30
2017-04-25T01:58:05.900Z,30.2
2017-04-25T02:00:05.903Z,30.2
2017-04-25T02:02:08.142Z,30
2017-04-25T02:04:05.358Z,30.2
2017-04-25T02:06:07.931Z,30.2
2017-04-25T02:08:05.614Z,30.2
2017-04-25T02:10:05.834Z,30.2
2017-04-25T02:12:05.397Z,30.2
2017-04-25T02:14:05.063Z,30.1
2017-04-25T02:16:06.122Z,30.1
2017-04-25T02:18:05.174Z,30
2017-04-25T02:20:05.827Z,30
2017-04-25T02:22:05.489Z,30.2
2017-04-25T02:24:13.597Z,30
2017-04-25T02:26:05.323Z,30
2017-04-25T02:28:06.037Z,30
2017-04-25T02:30:06.096Z,30
2017-04-25T02:32:05.594Z,30
2017-04-25T02:34:12.824Z,30
2017-04-25T02:36:05.305Z,29.9
2017-04-25T02:38:05.997Z,29.9
2017-04-25T02:40:05.666Z,29.9
2017-04-25T02:42:08.053Z,29.9
2017-04-25T02:44:05.704Z,29.9
2017-04-25T02:46:05.364Z,29.9
2017-04-25T02:48:07.978Z,29.9
2017-04-25T02:50:05.712Z,29.9
2017-04-25T02:52:07.952Z,29.9
2017-04-25T02:54:05.932Z,29.9
2017-04-25T02:56:05.210Z,29.9
2017-04-25T02:58:10.930Z,29.9
2017-04-25T03:00:05.780Z,29.9
2017-04-25T03:02:05.479Z,29.9
2017-04-25T03:04:08.085Z,30
2017-04-25T03:06:08.613Z,29.9
2017-04-25T03:08:05.298Z,29.9
2017-04-25T03:10:05.991Z,29.9
2017-04-25T03:12:08.495Z,29.8
2017-04-25T03:14:05.197Z,29.8
2017-04-25T03:16:05.493Z,29.9
2017-04-25T03:18:10.806Z,29.9
2017-04-25T03:20:05.841Z,29.9
2017-04-25T03:22:08.058Z,29.9
2017-04-25T03:24:06.049Z,29.9
2017-04-25T03:26:05.801Z,29.8
2017-04-25T03:28:05.592Z,29.8
2017-04-25T03:30:07.940Z,29.8
2017-04-25T03:32:05.632Z,29.8
2017-04-25T03:34:05.406Z,29.8
2017-04-25T03:36:06.030Z,29.8
2017-04-25T03:38:05.810Z,29.8
2017-04-25T03:40:05.085Z,29.8
2017-04-25T03:42:06.110Z,29.8
2017-04-25T03:44:05.842Z,29.8
2017-04-25T03:46:05.564Z,29.8
2017-04-25T03:48:05.415Z,29.9
2017-04-25T03:50:05.653Z,29.8
2017-04-25T03:52:08.710Z,29.8
2017-04-25T03:54:05.723Z,29.8
2017-04-25T03:56:07.956Z,29.8
2017-04-25T03:58:05.720Z,29.9
2017-04-25T04:00:08.342Z,29.8
2017-04-25T04:02:05.086Z,29.8
2017-04-25T04:04:05.855Z,29.8
2017-04-25T04:06:05.940Z,29.8
2017-04-25T04:08:06.104Z,29.9
2017-04-25T04:10:10.393Z,29.8
2017-04-25T04:12:05.391Z,29.8
2017-04-25T04:14:05.062Z,29.9
2017-04-25T04:16:07.809Z,29.9
2017-04-25T04:18:05.932Z,29.9
2017-04-25T04:20:05.643Z,29.8
2017-04-25T04:22:07.913Z,29.9
2017-04-25T04:24:05.466Z,29.8
2017-04-25T04:26:07.749Z,29.9
2017-04-25T04:28:05.453Z,29.7
2017-04-25T04:30:08.729Z,29.9
2017-04-25T04:32:08.801Z,29.9
2017-04-25T04:34:05.180Z,29.7
2017-04-25T04:36:08.670Z,29.9
2017-04-25T04:38:05.358Z,29.7
2017-04-25T04:40:05.550Z,29.9
2017-04-25T04:42:07.964Z,30
2017-04-25T04:44:05.751Z,30
2017-04-25T04:46:05.472Z,30
2017-04-25T04:48:05.309Z,30
2017-04-25T04:50:07.511Z,30
2017-04-25T04:52:05.230Z,30
2017-04-25T04:54:06.259Z,30
2017-04-25T04:56:05.636Z,29.9
2017-04-25T04:58:05.828Z,30
2017-04-25T05:00:05.851Z,30
2017-04-25T05:02:05.567Z,30.1
2017-04-25T05:04:05.276Z,29.9
2017-04-25T05:06:08.678Z,30.2
2017-04-25T05:08:05.392Z,30.1
2017-04-25T05:10:05.165Z,30.2
2017-04-25T05:12:06.317Z,30.3
2017-04-25T05:14:06.065Z,30.4
2017-04-25T05:16:05.762Z,30.2
2017-04-25T05:18:05.516Z,30.4
2017-04-25T05:20:05.706Z,30.2
2017-04-25T05:22:07.996Z,30.2
2017-04-25T05:24:05.916Z,30.2
2017-04-25T05:26:08.447Z,30.2
2017-04-25T05:28:06.162Z,30.3
2017-04-25T05:30:06.032Z,30.2
2017-04-25T05:32:05.737Z,30.2
2017-04-25T05:34:05.700Z,30
2017-04-25T05:36:05.596Z,30
2017-04-25T05:38:05.476Z,30
2017-04-25T05:40:07.892Z,30
2017-04-25T05:42:06.052Z,30.1
2017-04-25T05:44:05.577Z,30
2017-04-25T05:46:05.308Z,29.9
2017-04-25T05:48:08.809Z,29.6
2017-04-25T05:50:05.498Z,29.6
2017-04-25T05:52:05.218Z,29.6
2017-04-25T05:54:06.178Z,29.6
2017-04-25T05:56:05.907Z,29.4
2017-04-25T05:58:05.577Z,29.6
2017-04-25T06:00:05.571Z,29.4
2017-04-25T06:02:05.874Z,29.6
2017-04-25T06:04:05.671Z,29.4
2017-04-25T06:06:10.808Z,29.4
2017-04-25T06:08:05.155Z,29.4
2017-04-25T06:10:05.866Z,29.4
2017-04-25T06:12:08.308Z,29.5
2017-04-25T06:14:05.053Z,29.5
2017-04-25T06:16:06.046Z,29.5
2017-04-25T06:18:06.208Z,29.6
2017-04-25T06:20:05.927Z,29.7
2017-04-25T06:22:05.651Z,29.7
2017-04-25T06:24:05.708Z,29.7
2017-04-25T06:26:05.454Z,29.7
2017-04-25T06:28:10.720Z,29.9
2017-04-25T06:30:05.699Z,29.9
2017-04-25T06:32:18.419Z,29.9
2017-04-25T06:34:05.147Z,29.9
2017-04-25T06:36:06.931Z,29.9
2017-04-25T06:38:05.147Z,29.9
2017-04-25T06:40:08.331Z,30
2017-04-25T06:42:05.400Z,30
2017-04-25T06:44:05.061Z,30
2017-04-25T06:46:06.742Z,30.2
2017-04-25T06:48:10.975Z,30.3
2017-04-25T06:50:06.833Z,30.4
2017-04-25T06:52:06.608Z,30.5
2017-04-25T06:54:12.072Z,30.5
2017-04-25T06:56:05.272Z,30.5
2017-04-25T06:58:05.228Z,30.4
2017-04-25T07:00:07.240Z,30.6
2017-04-25T07:02:05.428Z,30.7
2017-04-25T07:04:06.601Z,30.6
2017-04-25T07:06:05.955Z,30.6
2017-04-25T07:08:08.776Z,30.7
2017-04-25T07:10:07.153Z,31
2017-04-25T07:12:11.216Z,30.9
2017-04-25T07:14:05.990Z,30.8
2017-04-25T07:16:05.448Z,30.7
2017-04-25T07:18:06.203Z,30.8
2017-04-25T07:20:14.357Z,30.7
2017-04-25T07:22:08.483Z,30.9
2017-04-25T07:24:05.921Z,30.9
2017-04-25T07:26:05.860Z,30.8
2017-04-25T07:28:05.494Z,30.9
2017-04-25T07:30:07.918Z,30.9
2017-04-25T07:32:06.773Z,30.9
2017-04-25T07:34:05.333Z,30.7
2017-04-25T07:36:05.664Z,30.7
2017-04-25T07:38:05.654Z,30.9
2017-04-25T07:40:05.412Z,30.8
2017-04-25T07:42:05.799Z,30.8
2017-04-25T07:44:05.146Z,31.1
2017-04-25T07:46:05.861Z,31
2017-04-25T07:48:05.873Z,31.2
2017-04-25T07:50:10.676Z,31
2017-04-25T07:52:05.494Z,31
2017-04-25T07:54:05.460Z,30.9
2017-04-25T07:56:07.755Z,30.9
2017-04-25T07:58:05.050Z,30.9
2017-04-25T08:00:05.887Z,30.9
2017-04-25T08:02:05.596Z,30.8
2017-04-25T08:04:07.835Z,30.9
2017-04-25T08:06:05.275Z,31.1
2017-04-25T08:08:08.401Z,30.9
2017-04-25T08:10:05.153Z,30.8
2017-04-25T08:12:06.242Z,30.8
2017-04-25T08:14:05.933Z,30.8
2017-04-25T08:16:15.807Z,31.1
2017-04-25T08:18:05.885Z,31.1
2017-04-25T08:20:05.624Z,31.2
2017-04-25T08:22:05.933Z,31.1
2017-04-25T08:24:05.485Z,31.2
2017-04-25T08:26:06.115Z,31.2
2017-04-25T08:28:05.857Z,31.2
2017-04-25T08:30:05.866Z,31.1
2017-04-25T08:32:05.609Z,31.2
2017-04-25T08:34:07.843Z,31.1
2017-04-25T08:36:05.736Z,31.3
2017-04-25T08:38:05.493Z,31.3
2017-04-25T08:40:05.620Z,31.2
2017-04-25T08:42:05.669Z,31.3
2017-04-25T08:44:11.053Z,31.2
2017-04-25T08:46:05.792Z,31.2
2017-04-25T08:48:08.257Z,31.2
2017-04-25T08:50:05.946Z,31.2
2017-04-25T08:52:10.766Z,31.1
2017-04-25T08:54:10.821Z,31.1
2017-04-25T08:56:08.175Z,31.1
2017-04-25T08:58:05.915Z,31.1
2017-04-25T09:00:10.927Z,31
2017-04-25T09:02:08.113Z,31.2
2017-04-25T09:04:08.338Z,31.4
2017-04-25T09:06:05.673Z,31.4
2017-04-25T09:08:05.375Z,31.5
2017-04-25T09:10:05.661Z,31.3
2017-04-25T09:12:05.529Z,31.3
2017-04-25T09:14:05.744Z,31.5
2017-04-25T09:16:05.478Z,31.6
2017-04-25T09:18:08.785Z,31
2017-04-25T09:20:08.022Z,31
2017-04-25T09:22:08.296Z,31.1
2017-04-25T09:24:05.151Z,31.2
2017-04-25T09:26:05.927Z,31.3
2017-04-25T09:28:05.888Z,31.3
2017-04-25T09:30:05.693Z,31
2017-04-25T09:32:05.375Z,30.8
2017-04-25T09:34:05.574Z,31.2
2017-04-25T09:36:05.411Z,31.4
2017-04-25T09:38:07.608Z,31.1
2017-04-25T09:40:05.325Z,31.2
2017-04-25T09:42:05.179Z,31
2017-04-25T09:44:08.110Z,30.9
2017-04-25T09:46:05.897Z,30.9
2017-04-25T09:48:08.223Z,31
2017-04-25T09:50:08.454Z,30.8
2017-04-25T09:52:05.140Z,30.8
2017-04-25T09:54:05.342Z,30.9
2017-04-25T09:56:05.030Z,30.9
2017-04-25T09:58:05.312Z,30.8
2017-04-25T10:00:05.376Z,30.8
2017-04-25T10:02:05.635Z,30.9
2017-04-25T10:04:07.922Z,30.7
2017-04-25T10:06:05.734Z,30.7
2017-04-25T10:08:05.520Z,30.8
2017-04-25T10:10:05.211Z,30.8
2017-04-25T10:12:08.668Z,30.8
2017-04-25T10:14:05.329Z,30.8
2017-04-25T10:16:05.155Z,30.8
2017-04-25T10:18:05.710Z,30.6
2017-04-25T10:20:08.955Z,30.9
2017-04-25T10:22:06.108Z,30.6
2017-04-25T10:24:09.737Z,30.7
2017-04-25T10:26:05.893Z,30.7
2017-04-25T10:28:05.620Z,30.7
2017-04-25T10:30:07.982Z,30.8
2017-04-25T10:32:08.407Z,30.8
2017-04-25T10:34:10.183Z,30.5
2017-04-25T10:36:06.206Z,30.7
2017-04-25T10:38:05.944Z,30.7
2017-04-25T10:40:08.176Z,30.5
2017-04-25T10:42:06.156Z,30.5
2017-04-25T10:44:06.076Z,30.6
2017-04-25T10:46:09.000Z,30.6
2017-04-25T10:48:05.984Z,30.6
2017-04-25T10:50:06.420Z,30.6
2017-04-25T10:52:05.781Z,30.6
2017-04-25T10:54:05.909Z,30.6
2017-04-25T10:56:05.825Z,30.6
2017-04-25T10:58:06.189Z,30.6
2017-04-25T11:00:06.279Z,30.7
2017-04-25T11:02:11.545Z,30.7
2017-04-25T11:04:07.216Z,30.7
2017-04-25T11:06:05.946Z,30.6
2017-04-25T11:08:05.850Z,30.7
2017-04-25T11:10:08.269Z,30.5
2017-04-25T11:12:07.083Z,30.5
2017-04-25T11:14:07.226Z,30.5
2017-04-25T11:16:07.400Z,30.5
2017-04-25T11:18:08.665Z,30.5
2017-04-25T11:20:05.912Z,30.5
2017-04-25T11:22:05.830Z,30.6
2017-04-25T11:24:06.084Z,30.6
2017-04-25T11:26:08.331Z,30.4
2017-04-25T11:28:08.048Z,30.5
2017-04-25T11:30:06.270Z,30.5
2017-04-25T11:32:10.429Z,30.3
2017-04-25T11:34:05.251Z,30.5
2017-04-25T11:36:11.076Z,30.4
2017-04-25T11:38:06.516Z,30.4
2017-04-25T11:40:05.636Z,30.4
2017-04-25T11:42:13.402Z,30.4
2017-04-25T11:44:06.292Z,30.4
2017-04-25T11:46:05.442Z,30.4
2017-04-25T11:48:08.252Z,30.4
2017-04-25T11:50:06.942Z,30.4
2017-04-25T11:52:06.902Z,30.4
2017-04-25T11:54:06.227Z,30.4
2017-04-25T11:56:07.196Z,30.5
2017-04-25T11:58:08.453Z,30.5
2017-04-25T12:00:06.292Z,30.5
2017-04-25T12:02:07.763Z,30.6
2017-04-25T12:04:10.495Z,30.6
2017-04-25T12:06:08.271Z,30.5
2017-04-25T12:08:06.104Z,30.5
2017-04-25T12:10:05.842Z,30.6
2017-04-25T12:12:05.908Z,30.6
2017-04-25T12:14:05.166Z,30.4
2017-04-25T12:16:08.039Z,30.5
2017-04-25T12:18:10.318Z,30.5
2017-04-25T12:20:06.078Z,30.5
2017-04-25T12:22:05.087Z,30.5
2017-04-25T12:24:05.585Z,30.4
2017-04-25T12:26:05.495Z,30.5
2017-04-25T12:28:08.200Z,30.5
2017-04-25T12:30:06.231Z,30.5
2017-04-25T12:32:06.140Z,30.5
2017-04-25T12:34:05.455Z,30.5
2017-04-25T12:36:05.324Z,30.5
2017-04-25T12:38:05.539Z,30.5
2017-04-25T12:40:10.384Z,30.5
2017-04-25T12:42:05.861Z,30.5
2017-04-25T12:44:10.819Z,30.5
2017-04-25T12:46:05.692Z,30.5
2017-04-25T12:48:05.717Z,30.5
2017-04-25T12:50:05.800Z,30.5
2017-04-25T12:52:05.600Z,30.3
2017-04-25T12:54:09.204Z,30.3
2017-04-25T12:56:05.667Z,30.3
2017-04-25T12:58:05.871Z,30.3
2017-04-25T13:00:07.126Z,30.3
2017-04-25T13:02:07.910Z,30.4
2017-04-25T13:04:11.765Z,30.4
2017-04-25T13:06:05.603Z,30.4
2017-04-25T13:08:07.859Z,30.4
2017-04-25T13:10:08.162Z,30.6
2017-04-25T13:12:08.949Z,30.5
2017-04-25T13:14:05.629Z,30.5
2017-04-25T13:16:05.362Z,30.5
2017-04-25T13:18:05.629Z,30.5
2017-04-25T13:20:12.931Z,30.5
2017-04-25T13:22:05.618Z,30.5
2017-04-25T13:24:06.191Z,30.5
2017-04-25T13:26:05.880Z,30.5
2017-04-25T13:28:05.934Z,30.6
2017-04-25T13:30:05.505Z,30.6
2017-04-25T13:32:05.712Z,30.6
2017-04-25T13:34:07.918Z,30.5
2017-04-25T13:36:05.752Z,30.5
2017-04-25T13:38:05.484Z,30.7
2017-04-25T13:40:05.179Z,30.5
2017-04-25T13:42:06.321Z,30.5
2017-04-25T13:44:05.355Z,30.5
2017-04-25T13:46:07.619Z,30.5
2017-04-25T13:48:05.632Z,30.5
2017-04-25T13:50:05.330Z,30.6
2017-04-25T13:52:05.014Z,30.6
2017-04-25T13:54:05.985Z,30.5
2017-04-25T13:56:05.697Z,30.6
2017-04-25T13:58:05.436Z,30.6
2017-04-25T14:00:05.505Z,30.6
2017-04-25T14:02:05.234Z,30.6
2017-04-25T14:04:05.905Z,30.6
2017-04-25T14:06:05.933Z,30.6
2017-04-25T14:08:05.628Z,30.6
2017-04-25T14:10:05.343Z,30.5
2017-04-25T14:12:12.785Z,30.6
2017-04-25T14:14:13.828Z,30.6
2017-04-25T14:16:05.864Z,30.6
2017-04-25T14:18:10.427Z,30.6
2017-04-25T14:20:08.605Z,30.6
2017-04-25T14:22:09.004Z,30.6
2017-04-25T14:24:07.585Z,30.6
2017-04-25T14:26:07.847Z,30.6
2017-04-25T14:28:06.002Z,30.6
2017-04-25T14:30:12.327Z,30.6
2017-04-25T14:32:06.011Z,30.6
2017-04-25T14:34:06.812Z,30.5
2017-04-25T14:36:05.849Z,30.6
2017-04-25T14:38:05.378Z,30.6
2017-04-25T14:40:05.320Z,30.5
2017-04-25T14:42:06.372Z,30.6
2017-04-25T14:44:05.911Z,30.6
2017-04-25T14:46:05.895Z,30.6
2017-04-25T14:48:06.613Z,30.3
2017-04-25T14:50:08.142Z,30.3
2017-04-25T14:52:05.913Z,30.3
2017-04-25T14:54:06.450Z,30.4
2017-04-25T14:56:07.126Z,30.4
2017-04-25T14:58:08.892Z,30.6
2017-04-25T15:00:11.475Z,30.7
2017-04-25T15:02:05.352Z,30.9
2017-04-25T15:04:05.394Z,30.9
2017-04-25T15:06:06.078Z,30.8
2017-04-25T15:08:08.378Z,31.1
2017-04-25T15:10:05.104Z,31.1
2017-04-25T15:12:05.511Z,31.3
2017-04-25T15:14:06.028Z,31.2
2017-04-25T15:16:08.480Z,31.7
2017-04-25T15:18:07.089Z,31.6
2017-04-25T15:20:05.563Z,32.4
2017-04-25T15:22:06.229Z,32.6
2017-04-25T15:24:06.507Z,33.2
2017-04-25T15:26:05.418Z,32.7
2017-04-25T15:28:05.075Z,32.8
2017-04-25T15:30:07.373Z,33.2
2017-04-25T15:32:05.115Z,32.2
2017-04-25T15:34:07.075Z,31.1
2017-04-25T15:36:11.836Z,32.2
2017-04-25T15:38:05.543Z,32.4
2017-04-25T15:40:06.969Z,31.9
2017-04-25T15:42:17.092Z,31.7
2017-04-25T15:44:05.525Z,31.7
2017-04-25T15:46:05.769Z,31.6
2017-04-25T15:48:08.020Z,32.1
2017-04-25T15:50:08.250Z,31.5
2017-04-25T15:52:15.542Z,31.3
2017-04-25T15:54:05.850Z,31.3
2017-04-25T15:56:05.752Z,31.3
2017-04-25T15:58:07.111Z,31.1
2017-04-25T16:00:09.522Z,30.6
2017-04-25T16:02:08.277Z,30.5
2017-04-25T16:04:08.024Z,30.1
2017-04-25T16:06:06.000Z,30.1
2017-04-25T16:08:06.088Z,30.3
2017-04-25T16:10:05.641Z,30.3
2017-04-25T16:12:08.339Z,30
2017-04-25T16:14:07.588Z,30
2017-04-25T16:16:07.809Z,29.9
2017-04-25T16:18:06.038Z,29.9
2017-04-25T16:20:05.967Z,29.9
2017-04-25T16:22:05.734Z,29.8
2017-04-25T16:24:13.770Z,30
2017-04-25T16:26:07.989Z,29.7
2017-04-25T16:28:07.068Z,29.7
2017-04-25T16:30:05.344Z,30
2017-04-25T16:32:05.702Z,29.7
2017-04-25T16:34:05.649Z,29.7
2017-04-25T16:36:08.336Z,29.8
2017-04-25T16:38:13.681Z,29.7
2017-04-25T16:40:08.087Z,29.6
2017-04-25T16:42:05.627Z,29.7
2017-04-25T16:44:05.401Z,29.6
2017-04-25T16:46:05.711Z,29.5
2017-04-25T16:48:07.795Z,29.5
2017-04-25T16:50:06.201Z,29.3
2017-04-25T16:52:08.944Z,29.2
2017-04-25T16:54:06.337Z,29.2
2017-04-25T16:56:05.288Z,29.3
2017-04-25T16:58:08.854Z,29.1
2017-04-25T17:00:06.087Z,29.1
2017-04-25T17:02:05.648Z,29
2017-04-25T17:04:10.473Z,29.1
2017-04-25T17:06:09.865Z,28.4
2017-04-25T17:08:05.611Z,28.4
2017-04-25T17:10:05.267Z,28.2
2017-04-25T17:12:10.478Z,28.1
2017-04-25T17:14:06.041Z,28.2
2017-04-25T17:16:05.753Z,28.3
2017-04-25T17:18:07.022Z,28.5
2017-04-25T17:20:13.678Z,28.6
2017-04-25T17:22:06.277Z,28.6
2017-04-25T17:24:09.274Z,28.6
2017-04-25T17:26:05.687Z,28.6
2017-04-25T17:28:05.877Z,28.6
2017-04-25T17:30:06.581Z,28.7
2017-04-25T17:32:08.034Z,28.8
2017-04-25T17:34:08.296Z,28.8
2017-04-25T17:36:05.667Z,28.8
2017-04-25T17:38:08.419Z,28.9
2017-04-25T17:40:05.377Z,28.9
2017-04-25T17:42:05.555Z,29
2017-04-25T17:44:05.579Z,29.2
2017-04-25T17:46:05.535Z,29
2017-04-25T17:48:06.671Z,29.1
2017-04-25T17:50:05.926Z,29.1
2017-04-25T17:52:05.729Z,29.1
2017-04-25T17:54:05.981Z,29.1
2017-04-25T17:56:06.942Z,29.2
2017-04-25T17:58:05.872Z,29.2
2017-04-25T18:00:06.138Z,29.3
2017-04-25T18:02:05.554Z,29.3
2017-04-25T18:04:06.818Z,29.5
2017-04-25T18:06:11.540Z,29.4
2017-04-25T18:08:08.477Z,29.4
2017-04-25T18:10:06.508Z,29.4
2017-04-25T18:12:07.239Z,29.4
2017-04-25T18:14:06.244Z,29.4
2017-04-25T18:16:12.326Z,29.5
2017-04-25T18:18:06.304Z,29.7
2017-04-25T18:20:05.699Z,29.5
2017-04-25T18:22:05.636Z,29.6
2017-04-25T18:24:07.988Z,29.7
2017-04-25T18:26:06.349Z,29.9
2017-04-25T18:28:06.070Z,29.8
2017-04-25T18:30:06.246Z,29.9
2017-04-25T18:32:11.724Z,29.9
2017-04-25T18:34:05.463Z,29.9
2017-04-25T18:36:17.689Z,29.9
2017-04-25T18:38:05.417Z,29.9
2017-04-25T18:40:07.237Z,30.1
2017-04-25T18:42:06.207Z,30.1
2017-04-25T18:44:05.602Z,30.3
2017-04-25T18:46:11.367Z,30.3
2017-04-25T18:48:10.445Z,30.3
2017-04-25T18:50:05.873Z,30.3
2017-04-25T18:52:05.395Z,30.6
2017-04-25T18:54:05.947Z,30.4
2017-04-25T18:56:05.769Z,30.7
2017-04-25T18:58:06.503Z,30.7
2017-04-25T19:00:06.846Z,30.7
2017-04-25T19:02:05.793Z,30.7
2017-04-25T19:04:10.964Z,30.7
2017-04-25T19:06:10.268Z,30.8
2017-04-25T19:08:05.496Z,31
2017-04-25T19:10:08.052Z,31.1
2017-04-25T19:12:14.654Z,31
2017-04-25T19:14:06.906Z,31
2017-04-25T19:16:05.342Z,31.1
2017-04-25T19:18:05.584Z,31
2017-04-25T19:20:05.665Z,31.1
2017-04-25T19:22:06.294Z,31
2017-04-25T19:24:06.532Z,31.3
2017-04-25T19:26:05.687Z,31.4
2017-04-25T19:28:08.485Z,31.3
2017-04-25T19:30:06.777Z,31.3
2017-04-25T19:32:16.937Z,31.4
2017-04-25T19:34:09.624Z,31.4
2017-04-25T19:36:07.223Z,31.4
2017-04-25T19:38:07.174Z,31.4
2017-04-25T19:40:06.281Z,31.4
2017-04-25T19:42:13.736Z,31.6
2017-04-25T19:44:14.182Z,31.6
2017-04-25T19:46:07.509Z,31.6
2017-04-25T19:48:09.038Z,31.6
2017-04-25T19:50:06.755Z,31.6
2017-04-25T19:52:06.029Z,31.5
2017-04-25T19:54:05.813Z,31.6
2017-04-25T19:56:06.714Z,31.8
2017-04-25T19:58:07.983Z,31.8
2017-04-25T20:00:06.062Z,31.8
2017-04-25T20:02:06.754Z,31.8
2017-04-25T20:04:05.075Z,31.8
2017-04-25T20:06:06.624Z,31.8
2017-04-25T20:08:05.497Z,31.8
2017-04-25T20:10:07.767Z,32
2017-04-25T20:12:10.526Z,32
2017-04-25T20:14:05.235Z,32
2017-04-25T20:16:06.178Z,32.1
2017-04-25T20:18:05.433Z,32
2017-04-25T20:20:05.329Z,32
2017-04-25T20:24:07.530Z,32
2017-04-25T20:26:05.885Z,32
2017-04-25T20:28:05.569Z,32
2017-04-25T20:30:05.611Z,32
2017-04-25T20:32:10.351Z,32.1
2017-04-25T20:34:05.601Z,32.1
2017-04-25T20:36:05.486Z,32.2
2017-04-25T20:38:05.162Z,32.2
2017-04-25T20:40:08.534Z,32.3
2017-04-25T20:42:05.337Z,32
2017-04-25T20:44:05.071Z,32
2017-04-25T20:46:06.735Z,32.3
2017-04-25T20:48:05.849Z,32.3
2017-04-25T20:50:05.559Z,32.3
2017-04-25T20:52:05.523Z,32.3
2017-04-25T20:54:10.590Z,32.3
2017-04-25T20:56:08.096Z,32.3
2017-04-25T20:58:05.222Z,32.3
2017-04-25T21:00:06.072Z,32.3
2017-04-25T21:02:08.322Z,32.3
2017-04-25T21:04:05.017Z,32.3
2017-04-25T21:06:05.949Z,32.3
2017-04-25T21:08:05.679Z,32.3
2017-04-25T21:10:05.350Z,32.2
2017-04-25T21:12:07.696Z,32.3
2017-04-25T21:14:05.395Z,32.3
2017-04-25T21:16:07.612Z,32.2
2017-04-25T21:18:05.790Z,32.2
2017-04-25T21:20:05.448Z,32.2
2017-04-25T21:22:05.640Z,32.3
2017-04-25T21:24:06.566Z,32.2
2017-04-25T21:26:05.262Z,32.2
2017-04-25T21:28:06.129Z,32.2
2017-04-25T21:30:11.293Z,32.4
2017-04-25T21:32:06.242Z,32.2
2017-04-25T21:34:11.095Z,32.1
2017-04-25T21:36:05.929Z,32.3
2017-04-25T21:38:05.202Z,32.3
2017-04-25T21:40:05.854Z,32.3
2017-04-25T21:42:05.909Z,32.4
2017-04-25T21:44:05.815Z,32.3
2017-04-25T21:46:05.546Z,32.4
2017-04-25T21:48:08.095Z,32.3
2017-04-25T21:50:08.324Z,32.3
2017-04-25T21:52:04.989Z,32.3
2017-04-25T21:54:06.015Z,32.3
2017-04-25T21:56:08.261Z,32.3
2017-04-25T21:58:05.994Z,32.3
2017-04-25T22:00:06.087Z,32.3
2017-04-25T22:02:05.779Z,32.3
2017-04-25T22:04:05.079Z,32.3
2017-04-25T22:06:06.123Z,32.3
2017-04-25T22:08:05.800Z,32.3
2017-04-25T22:10:05.622Z,32.3
2017-04-25T22:12:05.637Z,32.3
2017-04-25T22:14:05.347Z,32.3
2017-04-25T22:16:05.185Z,32.3
2017-04-25T22:18:05.507Z,32.2
2017-04-25T22:20:05.283Z,32.2
2017-04-25T22:22:05.797Z,32.2
2017-04-25T22:24:08.380Z,32.2
2017-04-25T22:26:05.613Z,32.2
2017-04-25T22:28:12.897Z,32.2
2017-04-25T22:30:05.892Z,32.4
2017-04-25T22:32:05.753Z,32.4
2017-04-25T22:34:05.458Z,32.4
2017-04-25T22:36:05.794Z,32.4
2017-04-25T22:38:05.013Z,32.4
2017-04-25T22:40:08.282Z,32.4
2017-04-25T22:42:06.307Z,32.4
2017-04-25T22:44:05.957Z,32.4
2017-04-25T22:46:05.665Z,32.4
2017-04-25T22:48:08.325Z,32.3
2017-04-25T22:50:07.625Z,32.4
2017-04-25T22:52:05.413Z,32.4
2017-04-25T22:54:05.534Z,32.3
2017-04-25T22:56:05.262Z,32.3
2017-04-25T22:58:05.948Z,32.4
2017-04-25T23:00:06.009Z,32.3
2017-04-25T23:02:05.696Z,32.3
2017-04-25T23:04:05.523Z,32.3
2017-04-25T23:06:05.908Z,32.3
2017-04-25T23:08:08.141Z,32.3
2017-04-25T23:10:05.842Z,32.3
2017-04-25T23:12:08.325Z,32.5
2017-04-25T23:14:05.052Z,32.3
2017-04-25T23:16:05.794Z,32.5
2017-04-25T23:18:07.945Z,32.5
2017-04-25T23:20:05.429Z,32.3
2017-04-25T23:22:05.208Z,32.5
2017-04-25T23:24:08.753Z,32.5
2017-04-25T23:26:05.462Z,32.2
2017-04-25T23:28:05.175Z,32.5
2017-04-25T23:30:05.845Z,32.2
2017-04-25T23:32:05.088Z,32.5
2017-04-25T23:34:05.882Z,32.4
2017-04-25T23:36:05.427Z,32.5
2017-04-25T23:38:05.187Z,32.5
2017-04-25T23:40:07.937Z,32.4
2017-04-25T23:42:05.967Z,32.4
2017-04-25T23:44:05.629Z,32.5
2017-04-25T23:46:05.360Z,32.5
2017-04-25T23:48:05.435Z,32.4
2017-04-25T23:50:05.146Z,32.4
2017-04-25T23:52:06.191Z,32.4
2017-04-25T23:54:06.184Z,32.4
2017-04-25T23:56:05.397Z,32.4
2017-04-25T23:58:05.109Z,32.4
